createdAt,value
2019-04-18T00:00:42.749Z,45.37
2019-04-18T00:01:52.189Z,45.09
2019-04-18T00:03:02.247Z,45.28
2019-04-18T00:04:11.396Z,45.3
2019-04-18T00:05:20.273Z,45.18
2019-04-18T00:06:29.707Z,45.37
2019-04-18T00:07:38.913Z,45.28
2019-04-18T00:08:48.101Z,45.18
2019-04-18T00:09:59.805Z,45.4
2019-04-18T00:11:08.965Z,45.3
2019-04-18T00:12:25.532Z,45.37
2019-04-18T00:13:34.943Z,45.28
2019-04-18T00:14:52.416Z,45.01
2019-04-18T00:16:01.767Z,45.01
2019-04-18T00:17:14.521Z,45.09
2019-04-18T00:18:23.664Z,45.21
2019-04-18T00:19:32.818Z,45.28
2019-04-18T00:20:44.809Z,45.11
2019-04-18T00:21:56.371Z,45
2019-04-18T00:23:05.251Z,45.01
2019-04-18T00:24:14.701Z,45.37
2019-04-18T00:25:24.117Z,45.28
2019-04-18T00:26:33.525Z,45.28
2019-04-18T00:27:50.819Z,44.9
2019-04-18T00:29:00.464Z,45.01
2019-04-18T00:30:09.620Z,45.28
2019-04-18T00:31:18.512Z,45.28
2019-04-18T00:32:27.502Z,45.28
2019-04-18T00:33:36.644Z,45.37
2019-04-18T00:34:45.784Z,45.67
2019-04-18T00:35:55.471Z,45.28
2019-04-18T00:37:05.541Z,45.09
2019-04-18T00:38:14.513Z,45.09
2019-04-18T00:39:23.665Z,45.28
2019-04-18T00:40:32.547Z,45.76
2019-04-18T00:41:49.587Z,45.37
2019-04-18T00:42:59.109Z,45.37
2019-04-18T00:44:08.872Z,45.47
2019-04-18T00:45:18.316Z,45.67
2019-04-18T00:46:27.464Z,45.47
2019-04-18T00:47:36.623Z,45.57
2019-04-18T00:48:45.763Z,45.67
2019-04-18T00:49:57.623Z,45.76
2019-04-18T00:51:07.178Z,45.76
2019-04-18T00:52:20.058Z,45.76
2019-04-18T00:53:29.202Z,45.86
2019-04-18T00:54:38.360Z,45.76
2019-04-18T00:55:47.253Z,45.76
2019-04-18T00:56:57.328Z,45.57
2019-04-18T00:58:18.087Z,45.57
2019-04-18T00:59:28.068Z,45.76
2019-04-18T01:00:40.015Z,45.67
2019-04-18T01:01:49.746Z,45.76
2019-04-18T01:02:59.803Z,45.76
2019-04-18T01:04:08.954Z,45.67
2019-04-18T01:05:38.963Z,45.67
2019-04-18T01:06:54.200Z,45.67
2019-04-18T01:08:04.020Z,45.86
2019-04-18T01:09:13.203Z,45.86
2019-04-18T01:10:22.071Z,45.47
2019-04-18T01:11:31.045Z,45.47
2019-04-18T01:12:40.203Z,45.67
2019-04-18T01:13:49.088Z,45.86
2019-04-18T01:14:58.734Z,45.78
2019-04-18T01:16:08.308Z,45.67
2019-04-18T01:17:17.281Z,45.86
2019-04-18T01:18:26.431Z,45.67
2019-04-18T01:19:35.317Z,45.67
2019-04-18T01:20:44.190Z,45.67
2019-04-18T01:21:53.354Z,45.67
2019-04-18T01:23:03.466Z,45.67
2019-04-18T01:24:13.104Z,45.76
2019-04-18T01:25:22.255Z,45.47
2019-04-18T01:26:34.719Z,45.86
2019-04-18T01:27:48.137Z,45.76
2019-04-18T01:29:01.132Z,45.76
2019-04-18T01:30:10.284Z,45.67
2019-04-18T01:31:19.444Z,45.67
2019-04-18T01:32:28.323Z,45.67
2019-04-18T01:33:39.425Z,45.76
2019-04-18T01:34:51.358Z,45.67
2019-04-18T01:36:00.923Z,45.67
2019-04-18T01:37:10.349Z,45.67
2019-04-18T01:38:19.491Z,45.67
2019-04-18T01:39:28.633Z,45.76
2019-04-18T01:40:38.092Z,45.67
2019-04-18T01:41:46.962Z,45.76
2019-04-18T01:43:06.071Z,45.47
2019-04-18T01:44:16.695Z,45.76
2019-04-18T01:45:26.104Z,45.47
2019-04-18T01:46:35.261Z,45.67
2019-04-18T01:47:44.406Z,45.47
2019-04-18T01:48:53.832Z,45.67
2019-04-18T01:50:02.751Z,45.67
2019-04-18T01:51:23.874Z,45.76
2019-04-18T01:52:32.796Z,45.57
2019-04-18T01:53:41.667Z,45.76
2019-04-18T01:54:51.102Z,45.57
2019-04-18T01:56:00.591Z,45.76
2019-04-18T01:57:10.181Z,45.67
2019-04-18T01:58:19.062Z,45.67
2019-04-18T01:59:28.207Z,45.67
2019-04-18T02:00:40.344Z,45.57
2019-04-18T02:01:57.938Z,45.57
2019-04-18T02:03:08.051Z,45.57
2019-04-18T02:04:16.950Z,45.57
2019-04-18T02:05:27.940Z,45.57
2019-04-18T02:06:41.339Z,45.76
2019-04-18T02:07:50.416Z,45.57
2019-04-18T02:08:59.337Z,45.67
2019-04-18T02:10:08.920Z,45.57
2019-04-18T02:11:17.794Z,45.67
2019-04-18T02:12:26.936Z,45.57
2019-04-18T02:13:36.091Z,45.76
2019-04-18T02:14:45.545Z,45.67
2019-04-18T02:15:54.452Z,45.67
2019-04-18T02:17:19.348Z,45.76
2019-04-18T02:18:29.024Z,45.76
2019-04-18T02:19:37.914Z,45.47
2019-04-18T02:20:47.329Z,45.67
2019-04-18T02:21:56.208Z,45.76
2019-04-18T02:23:05.620Z,45.76
2019-04-18T02:24:14.905Z,45.57
2019-04-18T02:25:23.777Z,45.47
2019-04-18T02:26:33.022Z,45.76
2019-04-18T02:27:41.894Z,45.76
2019-04-18T02:28:51.035Z,45.67
2019-04-18T02:30:00.570Z,45.76
2019-04-18T02:31:11.523Z,45.76
2019-04-18T02:32:20.448Z,45.57
2019-04-18T02:33:29.325Z,45.57
2019-04-18T02:34:38.242Z,45.57
2019-04-18T02:35:47.391Z,45.67
2019-04-18T02:36:56.824Z,45.67
2019-04-18T02:38:10.306Z,45.76
2019-04-18T02:39:30.315Z,45.47
2019-04-18T02:40:39.192Z,45.67
2019-04-18T02:41:48.064Z,45.76
2019-04-18T02:42:57.213Z,45.76
2019-04-18T02:44:06.366Z,45.67
2019-04-18T02:45:15.290Z,45.47
2019-04-18T02:46:24.434Z,45.76
2019-04-18T02:47:33.854Z,45.47
2019-04-18T02:48:43.003Z,45.57
2019-04-18T02:49:51.876Z,45.67
2019-04-18T02:51:11.346Z,45.57
2019-04-18T02:52:27.092Z,45.57
2019-04-18T02:53:35.977Z,45.57
2019-04-18T02:54:47.046Z,45.67
2019-04-18T02:55:55.927Z,45.47
2019-04-18T02:57:05.215Z,45.57
2019-04-18T02:58:14.367Z,45.67
2019-04-18T02:59:23.504Z,45.67
2019-04-18T03:00:32.724Z,45.67
2019-04-18T03:01:41.597Z,45.67
2019-04-18T03:02:50.466Z,45.67
2019-04-18T03:03:59.429Z,45.57
2019-04-18T03:05:08.577Z,45.67
2019-04-18T03:06:18.441Z,45.67
2019-04-18T03:07:27.590Z,45.67
2019-04-18T03:08:36.740Z,45.67
2019-04-18T03:09:46.168Z,45.67
2019-04-18T03:10:55.123Z,45.67
2019-04-18T03:12:05.057Z,45.95
2019-04-18T03:13:14.752Z,45.67
2019-04-18T03:14:23.898Z,45.57
2019-04-18T03:15:32.766Z,45.67
2019-04-18T03:16:42.171Z,45.67
2019-04-18T03:17:51.414Z,45.76
2019-04-18T03:19:13.282Z,45.67
2019-04-18T03:20:22.961Z,45.47
2019-04-18T03:21:32.110Z,45.57
2019-04-18T03:22:41.253Z,45.67
2019-04-18T03:23:50.411Z,45.67
2019-04-18T03:24:59.282Z,45.76
2019-04-18T03:26:08.173Z,45.67
2019-04-18T03:27:17.339Z,45.67
2019-04-18T03:28:26.861Z,45.67
2019-04-18T03:29:35.733Z,45.67
2019-04-18T03:30:44.658Z,45.67
2019-04-18T03:32:01.443Z,45.67
2019-04-18T03:33:23.436Z,45.67
2019-04-18T03:34:33.172Z,45.76
2019-04-18T03:35:53.209Z,45.67
2019-04-18T03:37:08.716Z,45.67
2019-04-18T03:38:17.861Z,45.67
2019-04-18T03:39:26.729Z,45.67
2019-04-18T03:40:35.871Z,45.67
2019-04-18T03:41:45.277Z,45.86
2019-04-18T03:42:54.430Z,45.67
2019-04-18T03:44:18.203Z,45.76
2019-04-18T03:45:27.091Z,45.76
2019-04-18T03:46:36.241Z,45.57
2019-04-18T03:47:45.652Z,45.47
2019-04-18T03:48:58.078Z,45.67
2019-04-18T03:50:19.466Z,45.76
2019-04-18T03:51:28.638Z,45.86
2019-04-18T03:52:37.771Z,45.47
2019-04-18T03:53:46.646Z,45.47
2019-04-18T03:54:55.532Z,45.57
2019-04-18T03:56:06.039Z,45.76
2019-04-18T03:57:15.471Z,45.76
2019-04-18T03:58:24.612Z,45.47
2019-04-18T03:59:34.033Z,45.37
2019-04-18T04:00:43.169Z,45.37
2019-04-18T04:01:52.630Z,45.37
2019-04-18T04:03:16.772Z,45.57
2019-04-18T04:04:26.354Z,45.67
2019-04-18T04:05:35.502Z,45.76
2019-04-18T04:06:44.370Z,45.57
2019-04-18T04:08:01.320Z,45.67
2019-04-18T04:09:10.187Z,45.47
2019-04-18T04:10:19.330Z,45.37
2019-04-18T04:11:28.480Z,45.37
2019-04-18T04:12:37.622Z,45.37
2019-04-18T04:13:47.037Z,45.37
2019-04-18T04:14:56.443Z,45.76
2019-04-18T04:16:06.874Z,45.47
2019-04-18T04:17:15.750Z,45.37
2019-04-18T04:18:24.787Z,45.09
2019-04-18T04:19:33.939Z,45.86
2019-04-18T04:20:42.908Z,45.28
2019-04-18T04:21:51.785Z,45.28
2019-04-18T04:23:00.938Z,45.37
2019-04-18T04:24:10.777Z,45.09
2019-04-18T04:25:19.653Z,45.28
2019-04-18T04:26:29.061Z,45.57
2019-04-18T04:27:38.216Z,45
2019-04-18T04:28:47.093Z,45.09
2019-04-18T04:29:56.290Z,45.09
2019-04-18T04:31:16.173Z,45.09
2019-04-18T04:32:32.440Z,45.09
2019-04-18T04:33:42.482Z,45
2019-04-18T04:34:51.617Z,45
2019-04-18T04:36:19.252Z,45.18
2019-04-18T04:37:44.408Z,45
2019-04-18T04:38:55.355Z,45
2019-04-18T04:40:04.617Z,45.28
2019-04-18T04:41:16.724Z,45
2019-04-18T04:42:26.135Z,45.09
2019-04-18T04:43:35.017Z,45.18
2019-04-18T04:44:44.452Z,45.18
2019-04-18T04:45:53.387Z,45.18
2019-04-18T04:47:11.381Z,45.37
2019-04-18T04:48:29.062Z,45.18
2019-04-18T04:49:37.992Z,45.09
2019-04-18T04:50:47.684Z,45.18
2019-04-18T04:51:57.357Z,45.18
2019-04-18T04:53:06.330Z,45.18
2019-04-18T04:54:18.140Z,45.09
2019-04-18T04:55:28.041Z,45.09
2019-04-18T04:56:40.519Z,45
2019-04-18T04:58:02.562Z,45.09
2019-04-18T04:59:15.973Z,45.09
2019-04-18T05:00:27.151Z,45.18
2019-04-18T05:01:36.084Z,45.07
2019-04-18T05:02:45.244Z,45.18
2019-04-18T05:03:54.208Z,44.8
2019-04-18T05:05:03.093Z,45.18
2019-04-18T05:06:13.175Z,45.18
2019-04-18T05:07:37.992Z,44.8
2019-04-18T05:08:46.868Z,45.09
2019-04-18T05:09:55.761Z,44.8
2019-04-18T05:11:04.928Z,44.9
2019-04-18T05:12:14.862Z,44.8
2019-04-18T05:13:26.484Z,45
2019-04-18T05:14:38.785Z,44.8
2019-04-18T05:15:50.033Z,45.09
2019-04-18T05:17:00.663Z,44.7
2019-04-18T05:18:09.999Z,44.7
2019-04-18T05:19:20.404Z,44.78
2019-04-18T05:20:30.086Z,44.8
2019-04-18T05:21:42.457Z,45
2019-04-18T05:22:57.043Z,44.87
2019-04-18T05:24:08.967Z,44.9
2019-04-18T05:25:19.154Z,45
2019-04-18T05:26:28.033Z,45
2019-04-18T05:27:37.456Z,44.9
2019-04-18T05:28:46.372Z,44.9
2019-04-18T05:29:55.812Z,44.8
2019-04-18T05:31:04.782Z,45.07
2019-04-18T05:32:19.559Z,44.9
2019-04-18T05:33:32.356Z,45
2019-04-18T05:34:50.432Z,44.8
2019-04-18T05:36:04.379Z,44.9
2019-04-18T05:37:17.776Z,45
2019-04-18T05:38:27.168Z,44.68
2019-04-18T05:39:36.313Z,45
2019-04-18T05:40:45.188Z,44.97
2019-04-18T05:41:56.641Z,44.8
2019-04-18T05:43:05.951Z,44.9
2019-04-18T05:44:15.444Z,44.8
2019-04-18T05:45:27.210Z,45.16
2019-04-18T05:46:36.367Z,45
2019-04-18T05:47:45.237Z,44.97
2019-04-18T05:48:54.123Z,45
2019-04-18T05:50:13.795Z,44.7
2019-04-18T05:51:23.967Z,44.9
2019-04-18T05:52:32.850Z,45
2019-04-18T05:53:41.772Z,44.9
2019-04-18T05:54:50.917Z,45.09
2019-04-18T05:56:00.058Z,44.97
2019-04-18T05:57:09.105Z,45
2019-04-18T05:58:18.436Z,45.07
2019-04-18T05:59:27.953Z,44.87
2019-04-18T06:00:37.162Z,44.97
2019-04-18T06:01:46.300Z,44.97
2019-04-18T06:02:55.650Z,44.78
2019-04-18T06:04:05.201Z,44.87
2019-04-18T06:05:14.400Z,44.9
2019-04-18T06:06:23.275Z,44.78
2019-04-18T06:07:32.696Z,44.87
2019-04-18T06:08:45.877Z,44.9
2019-04-18T06:09:55.018Z,44.87
2019-04-18T06:11:03.950Z,44.87
2019-04-18T06:12:14.698Z,44.87
2019-04-18T06:13:23.736Z,44.9
2019-04-18T06:14:32.984Z,44.9
2019-04-18T06:15:47.813Z,45.07
2019-04-18T06:17:05.506Z,45
2019-04-18T06:18:15.572Z,45.16
2019-04-18T06:19:25.795Z,45.16
2019-04-18T06:20:36.604Z,44.87
2019-04-18T06:21:45.791Z,44.8
2019-04-18T06:22:55.307Z,44.87
2019-04-18T06:24:06.783Z,44.87
2019-04-18T06:25:23.146Z,44.87
2019-04-18T06:26:33.978Z,45.07
2019-04-18T06:27:43.288Z,44.87
2019-04-18T06:28:52.220Z,44.87
2019-04-18T06:30:01.376Z,44.8
2019-04-18T06:31:14.722Z,44.7
2019-04-18T06:32:24.024Z,44.97
2019-04-18T06:33:38.582Z,44.78
2019-04-18T06:34:47.575Z,44.78
2019-04-18T06:35:56.720Z,45.09
2019-04-18T06:37:06.944Z,44.9
2019-04-18T06:38:38.257Z,44.97
2019-04-18T06:39:53.941Z,44.87
2019-04-18T06:41:08.103Z,45
2019-04-18T06:42:20.589Z,44.87
2019-04-18T06:43:29.812Z,44.9
2019-04-18T06:44:39.031Z,45
2019-04-18T06:45:47.957Z,45
2019-04-18T06:46:57.168Z,45.07
2019-04-18T06:48:07.010Z,45
2019-04-18T06:49:16.704Z,45
2019-04-18T06:50:27.602Z,44.9
2019-04-18T06:51:36.585Z,45
2019-04-18T06:52:45.468Z,45
2019-04-18T06:53:58.589Z,45.09
2019-04-18T06:55:08.800Z,44.9
2019-04-18T06:56:20.678Z,44.9
2019-04-18T06:57:29.934Z,45.09
2019-04-18T06:58:49.449Z,44.97
2019-04-18T06:59:58.987Z,45
2019-04-18T07:01:08.161Z,44.9
2019-04-18T07:02:17.477Z,45
2019-04-18T07:03:26.735Z,44.8
2019-04-18T07:04:36.153Z,45.09
2019-04-18T07:05:45.030Z,44.9
2019-04-18T07:06:53.926Z,45.09
2019-04-18T07:08:03.072Z,45.09
2019-04-18T07:09:12.631Z,45
2019-04-18T07:10:21.771Z,45.18
2019-04-18T07:11:35.210Z,45
2019-04-18T07:12:49.938Z,45
2019-04-18T07:13:59.495Z,45
2019-04-18T07:15:13.418Z,45.09
2019-04-18T07:16:22.437Z,45.09
2019-04-18T07:17:31.847Z,45
2019-04-18T07:18:42.120Z,44.9
2019-04-18T07:19:51.548Z,44.9
2019-04-18T07:21:00.756Z,45.09
2019-04-18T07:22:10.774Z,45
2019-04-18T07:23:20.174Z,45.09
2019-04-18T07:24:29.087Z,45
2019-04-18T07:25:38.226Z,45.09
2019-04-18T07:26:47.430Z,44.7
2019-04-18T07:28:03.355Z,44.8
2019-04-18T07:29:12.505Z,45.28
2019-04-18T07:30:21.874Z,45
2019-04-18T07:31:34.495Z,45.09
2019-04-18T07:32:43.649Z,45.18
2019-04-18T07:33:53.525Z,45.18
2019-04-18T07:35:02.676Z,44.8
2019-04-18T07:36:12.092Z,44.61
2019-04-18T07:37:22.677Z,44.7
2019-04-18T07:38:33.938Z,44.61
2019-04-18T07:39:43.301Z,44.61
2019-04-18T07:40:52.452Z,45.18
2019-04-18T07:42:01.861Z,44.51
2019-04-18T07:43:11.646Z,44.61
2019-04-18T07:44:21.152Z,44.51
2019-04-18T07:45:30.345Z,44.7
2019-04-18T07:46:39.485Z,44.61
2019-04-18T07:47:48.396Z,44.42
2019-04-18T07:48:58.100Z,45
2019-04-18T07:50:07.636Z,45.18
2019-04-18T07:51:17.279Z,45.18
2019-04-18T07:52:26.437Z,45
2019-04-18T07:53:35.865Z,45
2019-04-18T07:54:45.012Z,44.8
2019-04-18T07:55:54.163Z,44.8
2019-04-18T07:57:06.157Z,45.09
2019-04-18T07:58:35.096Z,45
2019-04-18T07:59:44.257Z,45.09
2019-04-18T08:00:56.101Z,45.09
2019-04-18T08:02:04.980Z,45.09
2019-04-18T08:03:16.086Z,45.09
2019-04-18T08:04:43.191Z,45
2019-04-18T08:05:52.333Z,45
2019-04-18T08:07:01.267Z,45
2019-04-18T08:08:10.951Z,45
2019-04-18T08:09:20.187Z,44.8
2019-04-18T08:10:29.290Z,45
2019-04-18T08:11:38.444Z,45
2019-04-18T08:12:47.584Z,45
2019-04-18T08:13:56.476Z,45
2019-04-18T08:15:05.893Z,45
2019-04-18T08:16:15.045Z,45
2019-04-18T08:17:25.038Z,45.11
2019-04-18T08:18:34.183Z,44.9
2019-04-18T08:19:46.483Z,45
2019-04-18T08:20:58.572Z,44.9
2019-04-18T08:22:10.063Z,45.09
2019-04-18T08:23:34.677Z,45
2019-04-18T08:24:46.927Z,44.9
2019-04-18T08:25:57.625Z,45.09
2019-04-18T08:27:06.777Z,44.9
2019-04-18T08:28:18.621Z,44.9
2019-04-18T08:29:30.592Z,45
2019-04-18T08:30:39.488Z,45
2019-04-18T08:31:48.433Z,44.92
2019-04-18T08:32:57.583Z,45.09
2019-04-18T08:34:06.523Z,45
2019-04-18T08:35:16.450Z,45
2019-04-18T08:36:25.327Z,44.8
2019-04-18T08:37:34.478Z,45.09
2019-04-18T08:38:44.580Z,44.8
2019-04-18T08:39:53.461Z,44.8
2019-04-18T08:41:02.605Z,44.8
2019-04-18T08:42:11.779Z,44.82
2019-04-18T08:43:21.191Z,44.9
2019-04-18T08:44:33.626Z,44.9
2019-04-18T08:45:42.609Z,44.8
2019-04-18T08:46:55.355Z,44.9
2019-04-18T08:48:06.834Z,45
2019-04-18T08:49:17.335Z,45
2019-04-18T08:50:27.214Z,45
2019-04-18T08:51:36.452Z,44.9
2019-04-18T08:52:47.958Z,44.9
2019-04-18T08:53:57.242Z,44.9
2019-04-18T08:55:06.385Z,45
2019-04-18T08:56:15.570Z,45
2019-04-18T08:57:27.478Z,45
2019-04-18T08:58:36.358Z,44.7
2019-04-18T08:59:49.335Z,45
2019-04-18T09:00:58.762Z,44.7
2019-04-18T09:02:08.467Z,44.8
2019-04-18T09:03:31.651Z,45.01
2019-04-18T09:04:48.794Z,44.9
2019-04-18T09:06:35.750Z,44.92
2019-04-18T09:07:51.227Z,44.9
2019-04-18T09:09:07.979Z,44.82
2019-04-18T09:10:23.798Z,44.92
2019-04-18T09:11:36.466Z,45.01
2019-04-18T09:12:48.618Z,44.9
2019-04-18T09:14:04.544Z,44.9
2019-04-18T09:15:24.861Z,45.11
2019-04-18T09:16:36.210Z,45.01
2019-04-18T09:17:51.862Z,45.09
2019-04-18T09:19:03.850Z,45
2019-04-18T09:20:29.098Z,45.01
2019-04-18T09:21:42.148Z,44.9
2019-04-18T09:23:05.983Z,45.09
2019-04-18T09:24:25.371Z,45.11
2019-04-18T09:25:37.293Z,45.11
2019-04-18T09:26:48.666Z,45.01
2019-04-18T09:28:04.112Z,44.92
2019-04-18T09:29:14.303Z,44.73
2019-04-18T09:30:27.309Z,44.9
2019-04-18T09:31:36.192Z,44.92
2019-04-18T09:32:49.364Z,44.92
2019-04-18T09:34:02.069Z,44.73
2019-04-18T09:35:17.746Z,45.01
2019-04-18T09:36:30.799Z,44.8
2019-04-18T09:37:40.239Z,45.01
2019-04-18T09:38:49.385Z,44.8
2019-04-18T09:39:58.538Z,45.18
2019-04-18T09:41:07.516Z,44.82
2019-04-18T09:42:16.945Z,44.82
2019-04-18T09:43:28.844Z,44.82
2019-04-18T09:44:42.894Z,45.21
2019-04-18T09:45:56.350Z,44.92
2019-04-18T09:47:08.284Z,44.82
2019-04-18T09:48:30.502Z,44.8
2019-04-18T09:49:41.439Z,44.82
2019-04-18T09:50:51.833Z,45.21
2019-04-18T09:52:02.102Z,45.11
2019-04-18T09:53:11.359Z,45.21
2019-04-18T09:54:20.959Z,45.11
2019-04-18T09:55:30.490Z,45.21
2019-04-18T09:56:39.643Z,44.82
2019-04-18T09:57:48.852Z,45.11
2019-04-18T09:58:58.270Z,45.21
2019-04-18T10:00:14.516Z,45.21
2019-04-18T10:01:31.392Z,45.11
2019-04-18T10:02:40.269Z,45.11
2019-04-18T10:03:49.685Z,45.3
2019-04-18T10:04:58.839Z,45.3
2019-04-18T10:06:23.688Z,45.11
2019-04-18T10:07:32.564Z,45.11
2019-04-18T10:08:41.562Z,45.21
2019-04-18T10:09:50.706Z,45.11
2019-04-18T10:11:02.422Z,45.21
2019-04-18T10:12:25.340Z,45.5
2019-04-18T10:13:38.477Z,45.11
2019-04-18T10:14:47.352Z,45.21
2019-04-18T10:16:05.556Z,45.11
2019-04-18T10:17:19.133Z,45.11
2019-04-18T10:18:33.076Z,45.11
2019-04-18T10:19:43.131Z,45.21
2019-04-18T10:20:52.660Z,45.21
2019-04-18T10:22:05.540Z,45.3
2019-04-18T10:23:14.422Z,45.21
2019-04-18T10:24:29.452Z,45.01
2019-04-18T10:25:39.317Z,45.3
2019-04-18T10:26:52.808Z,45.21
2019-04-18T10:28:01.971Z,45.3
2019-04-18T10:29:10.855Z,45.3
2019-04-18T10:30:32.423Z,45.21
2019-04-18T10:31:41.302Z,45.3
2019-04-18T10:32:50.718Z,45.21
2019-04-18T10:34:00.131Z,45.11
2019-04-18T10:35:17.523Z,45.5
2019-04-18T10:36:30.235Z,45.21
2019-04-18T10:37:39.415Z,45.3
2019-04-18T10:38:51.598Z,45.4
2019-04-18T10:40:00.726Z,45.4
2019-04-18T10:41:10.408Z,45.01
2019-04-18T10:42:19.359Z,45.3
2019-04-18T10:43:28.516Z,45.11
2019-04-18T10:44:37.394Z,44.92
2019-04-18T10:45:46.547Z,45.11
2019-04-18T10:46:56.008Z,45.3
2019-04-18T10:48:05.479Z,45.21
2019-04-18T10:49:15.251Z,45.3
2019-04-18T10:50:24.406Z,45.11
2019-04-18T10:51:34.092Z,45.21
2019-04-18T10:52:43.300Z,45.01
2019-04-18T10:53:52.188Z,45.21
2019-04-18T10:55:01.073Z,45.5
2019-04-18T10:56:10.226Z,45.11
2019-04-18T10:57:19.871Z,45.3
2019-04-18T10:58:28.797Z,45.3
2019-04-18T10:59:37.705Z,45.11
2019-04-18T11:00:47.139Z,45.01
2019-04-18T11:01:56.559Z,45.11
2019-04-18T11:03:07.386Z,45.3
2019-04-18T11:04:22.844Z,45.21
2019-04-18T11:05:34.248Z,45.3
2019-04-18T11:06:43.407Z,45.4
2019-04-18T11:07:52.578Z,45.21
2019-04-18T11:09:01.453Z,45.11
2019-04-18T11:10:11.647Z,45.11
2019-04-18T11:11:21.463Z,45.21
2019-04-18T11:12:30.621Z,45.11
2019-04-18T11:13:39.508Z,45.4
2019-04-18T11:14:48.503Z,45.11
2019-04-18T11:15:57.768Z,45.3
2019-04-18T11:17:06.926Z,45.11
2019-04-18T11:18:16.088Z,45.3
2019-04-18T11:19:25.161Z,45.21
2019-04-18T11:20:34.041Z,45.21
2019-04-18T11:21:42.918Z,45.21
2019-04-18T11:22:52.347Z,45.21
2019-04-18T11:24:02.027Z,45.21
2019-04-18T11:25:11.973Z,45.3
2019-04-18T11:26:20.967Z,45.3
2019-04-18T11:27:35.822Z,45.3
2019-04-18T11:28:44.731Z,45.21
2019-04-18T11:29:53.606Z,44.92
2019-04-18T11:31:03.123Z,45.21
2019-04-18T11:32:12.971Z,45.4
2019-04-18T11:33:25.389Z,45.21
2019-04-18T11:34:34.263Z,45.21
2019-04-18T11:35:46.555Z,45.21
2019-04-18T11:36:55.429Z,45.21
2019-04-18T11:38:05.878Z,45.11
2019-04-18T11:39:17.323Z,45.11
2019-04-18T11:40:32.624Z,45.21
2019-04-18T11:41:44.354Z,45.21
2019-04-18T11:42:53.246Z,45.21
2019-04-18T11:44:02.398Z,45.3
2019-04-18T11:45:11.649Z,45.01
2019-04-18T11:46:21.339Z,45.3
2019-04-18T11:47:30.484Z,45.11
2019-04-18T11:48:39.369Z,45.21
2019-04-18T11:49:48.787Z,45.11
2019-04-18T11:50:57.721Z,45.3
2019-04-18T11:52:06.740Z,45.21
2019-04-18T11:53:15.799Z,45.3
2019-04-18T11:54:25.874Z,45.3
2019-04-18T11:55:35.021Z,45.11
2019-04-18T11:56:43.944Z,45.3
2019-04-18T11:57:52.848Z,45.11
2019-04-18T11:59:02.240Z,45.21
2019-04-18T12:00:14.988Z,45.11
2019-04-18T12:01:33.099Z,45.11
2019-04-18T12:02:42.058Z,45.11
2019-04-18T12:03:51.750Z,45.21
2019-04-18T12:05:00.933Z,45.11
2019-04-18T12:06:10.219Z,45.11
2019-04-18T12:07:19.379Z,45.11
2019-04-18T12:08:28.625Z,45.11
2019-04-18T12:09:37.779Z,45.01
2019-04-18T12:10:46.667Z,45.01
2019-04-18T12:11:55.813Z,45.21
2019-04-18T12:13:06.071Z,45.21
2019-04-18T12:14:15.093Z,45.3
2019-04-18T12:15:24.239Z,45.3
2019-04-18T12:16:35.434Z,45.3
2019-04-18T12:17:47.085Z,45.11
2019-04-18T12:18:56.518Z,45.11
2019-04-18T12:20:06.865Z,45.3
2019-04-18T12:21:17.076Z,45.3
2019-04-18T12:22:34.942Z,45.21
2019-04-18T12:23:44.306Z,45.11
2019-04-18T12:24:53.455Z,45.3
2019-04-18T12:26:03.919Z,45.21
2019-04-18T12:27:12.798Z,45.21
2019-04-18T12:28:21.993Z,45.21
2019-04-18T12:29:34.605Z,45.21
2019-04-18T12:30:43.877Z,45.21
2019-04-18T12:31:53.451Z,45.21
2019-04-18T12:33:03.603Z,44.92
2019-04-18T12:34:22.168Z,44.82
2019-04-18T12:35:31.887Z,44.82
2019-04-18T12:36:41.034Z,44.82
2019-04-18T12:37:50.278Z,44.82
2019-04-18T12:38:59.266Z,44.82
2019-04-18T12:40:08.431Z,45.01
2019-04-18T12:41:17.344Z,44.84
2019-04-18T12:42:28.738Z,44.75
2019-04-18T12:43:37.669Z,45.01
2019-04-18T12:44:47.101Z,44.73
2019-04-18T12:45:56.521Z,45.01
2019-04-18T12:47:06.861Z,44.82
2019-04-18T12:48:16.003Z,44.75
2019-04-18T12:49:29.605Z,45.01
2019-04-18T12:50:38.490Z,45.04
2019-04-18T12:51:47.676Z,45.04
2019-04-18T12:53:18.582Z,44.94
2019-04-18T12:54:27.478Z,45.04
2019-04-18T12:55:36.360Z,44.84
2019-04-18T12:56:45.541Z,44.92
2019-04-18T12:57:54.420Z,44.94
2019-04-18T12:59:04.143Z,44.94
2019-04-18T13:00:13.481Z,45.04
2019-04-18T13:01:22.889Z,44.75
2019-04-18T13:02:32.553Z,44.84
2019-04-18T13:03:44.393Z,44.94
2019-04-18T13:04:53.573Z,45.04
2019-04-18T13:06:03.901Z,44.94
2019-04-18T13:07:13.890Z,44.94
2019-04-18T13:08:25.930Z,45.23
2019-04-18T13:09:35.325Z,45.23
2019-04-18T13:10:45.012Z,45.23
2019-04-18T13:11:54.750Z,45.14
2019-04-18T13:13:04.233Z,45.23
2019-04-18T13:14:17.645Z,45.32
2019-04-18T13:15:27.066Z,45.32
2019-04-18T13:16:35.937Z,45.23
2019-04-18T13:17:45.451Z,45.04
2019-04-18T13:18:54.870Z,45.23
2019-04-18T13:20:08.587Z,45.23
2019-04-18T13:21:17.980Z,45.23
2019-04-18T13:22:26.988Z,45.14
2019-04-18T13:23:36.139Z,44.84
2019-04-18T13:24:45.007Z,44.94
2019-04-18T13:25:53.887Z,45.14
2019-04-18T13:27:04.291Z,45.23
2019-04-18T13:28:13.439Z,45.14
2019-04-18T13:29:22.582Z,45.32
2019-04-18T13:30:31.738Z,45.32
2019-04-18T13:31:40.608Z,45.23
2019-04-18T13:33:05.070Z,45.14
2019-04-18T13:34:18.640Z,45.14
2019-04-18T13:35:27.989Z,45.23
2019-04-18T13:36:37.401Z,45.23
2019-04-18T13:37:46.543Z,45.23
2019-04-18T13:38:55.952Z,45.04
2019-04-18T13:40:09.963Z,45.23
2019-04-18T13:41:19.473Z,45.23
2019-04-18T13:42:28.605Z,45.23
2019-04-18T13:43:37.486Z,45.23
2019-04-18T13:44:46.641Z,45.23
2019-04-18T13:45:56.160Z,45.04
2019-04-18T13:47:12.436Z,45.23
2019-04-18T13:48:21.317Z,45.14
2019-04-18T13:49:30.465Z,44.94
2019-04-18T13:50:39.335Z,45.23
2019-04-18T13:51:48.749Z,45.23
2019-04-18T13:52:59.010Z,45.04
2019-04-18T13:54:11.826Z,45.32
2019-04-18T13:55:20.695Z,45.23
2019-04-18T13:56:29.841Z,45.14
2019-04-18T13:57:39.350Z,45.14
2019-04-18T13:58:48.678Z,45.23
2019-04-18T13:59:58.742Z,45.23
2019-04-18T14:01:08.511Z,45.23
2019-04-18T14:02:22.811Z,45.23
2019-04-18T14:03:31.997Z,45.23
2019-04-18T14:04:43.906Z,45.23
2019-04-18T14:05:53.507Z,45.14
2019-04-18T14:07:04.046Z,45.23
2019-04-18T14:08:13.181Z,45.14
2019-04-18T14:09:22.063Z,45.04
2019-04-18T14:10:31.211Z,45.32
2019-04-18T14:11:40.423Z,45.23
2019-04-18T14:12:49.568Z,45.23
2019-04-18T14:14:00.188Z,45.14
2019-04-18T14:15:09.908Z,45.04
2019-04-18T14:16:19.767Z,45.23
2019-04-18T14:17:28.914Z,45.23
2019-04-18T14:18:39.044Z,45.14
2019-04-18T14:19:48.464Z,45.14
2019-04-18T14:20:57.979Z,45.23
2019-04-18T14:22:07.625Z,45.14
2019-04-18T14:23:16.787Z,45.14
2019-04-18T14:24:26.204Z,45.14
2019-04-18T14:25:35.408Z,45.23
2019-04-18T14:26:47.301Z,45.04
2019-04-18T14:27:58.236Z,45.14
2019-04-18T14:29:08.077Z,45.23
2019-04-18T14:30:18.126Z,45.14
2019-04-18T14:31:27.289Z,45.23
2019-04-18T14:32:36.931Z,45.14
2019-04-18T14:33:46.087Z,45.32
2019-04-18T14:34:55.231Z,45.23
2019-04-18T14:36:04.654Z,45.42
2019-04-18T14:37:13.546Z,45.32
2019-04-18T14:38:23.148Z,45.14
2019-04-18T14:39:32.562Z,45.04
2019-04-18T14:40:41.451Z,45.04
2019-04-18T14:41:50.327Z,44.94
2019-04-18T14:43:05.520Z,45.14
2019-04-18T14:44:20.540Z,45.04
2019-04-18T14:45:31.087Z,45.14
2019-04-18T14:46:40.222Z,45.32
2019-04-18T14:48:09.305Z,45.81
2019-04-18T14:49:25.710Z,45.42
2019-04-18T14:50:34.851Z,45.42
2019-04-18T14:51:44.005Z,45.42
2019-04-18T14:52:53.442Z,45.42
2019-04-18T14:54:02.339Z,45.14
2019-04-18T14:55:12.041Z,45.52
2019-04-18T14:56:21.803Z,45.14
2019-04-18T14:57:31.215Z,44.94
2019-04-18T14:58:40.088Z,45.04
2019-04-18T14:59:49.242Z,45.42
2019-04-18T15:00:58.722Z,45.42
2019-04-18T15:02:08.487Z,45.04
2019-04-18T15:03:17.639Z,45.14
2019-04-18T15:04:31.284Z,45.23
2019-04-18T15:05:40.157Z,45.42
2019-04-18T15:06:49.306Z,45.81
2019-04-18T15:07:59.176Z,45.9
2019-04-18T15:09:08.891Z,45.32
2019-04-18T15:10:18.381Z,45.9
2019-04-18T15:11:27.267Z,45.9
2019-04-18T15:12:36.422Z,45.52
2019-04-18T15:13:45.295Z,45.81
2019-04-18T15:14:54.446Z,45.81
2019-04-18T15:16:07.578Z,45.81
2019-04-18T15:17:16.468Z,45.81
2019-04-18T15:18:26.674Z,45.71
2019-04-18T15:19:36.160Z,45.71
2019-04-18T15:20:45.309Z,45.61
2019-04-18T15:21:54.274Z,45.52
2019-04-18T15:23:04.027Z,45.71
2019-04-18T15:24:13.991Z,45.71